Terminal Aerodrome Forecast
Issued by NWS Cleveland, OH

Home | Current Version | Previous Version | Text Only | Print | Product List | Glossary Off
Versions: 1 2 3 4 5 6 7 8 9 10 11 12 13 14 15 16 17 18 19 20 21 22 23 24 25

000
FTUS41 KCLE 262300
TAFERI
TAF
KERI 262338Z 2700/2724 01006KT P6SM VCTS OVC060CB
      TEMPO 2700/2703 3SM -TSRA OVC025CB
     FM270300 24006KT P6SM SCT025 OVC040
     FM270600 23010KT 4SM BR OVC025
     FM271900 25008KT P6SM VCTS BKN035CB=

USA.gov is the U.S. government's official web portal to all federal, state and local government web resources and services.